Time;durP1;ratioP1;P1;durP2;ratioP2;P2;SDS_P1;SDS_P2;PMS_P1;PMS_P2;Temp;Humidity;BMP_temperature;BMP_pressure;BME280_temperature;BME280_humidity;BME280_pressure;Samples;Min_cycle;Max_cycle;Signal;HPM_P1;HPM_P2
2023/03/14 00:01:11;;;;;;;0.60;0.60;;;9.80;99.90;9.10;94409.00;;;;5051869;28;20215;-67
2023/03/14 00:03:38;;;;;;;0.57;0.57;;;9.80;99.90;9.00;94403.00;;;;5053039;28;20211;-67
2023/03/14 00:06:07;;;;;;;0.53;0.53;;;9.80;99.90;9.00;94402.00;;;;5053133;28;20203;-67
2023/03/14 00:08:35;;;;;;;0.50;0.50;;;9.70;99.90;9.10;94391.00;;;;5052450;28;20188;-67
2023/03/14 00:11:08;;;;;;;0.93;0.93;;;9.70;99.90;9.00;94397.00;;;;5053007;28;20228;-67
2023/03/14 00:13:35;;;;;;;1.00;1.00;;;9.70;99.90;8.90;94396.00;;;;5053029;28;20188;-66
2023/03/14 00:16:04;;;;;;;0.50;0.50;;;9.70;99.90;8.90;94392.00;;;;5052983;28;20670;-67
2023/03/14 00:18:32;;;;;;;0.60;0.60;;;9.70;99.90;8.90;94386.00;;;;5053199;28;20195;-66
2023/03/14 00:21:01;;;;;;;0.60;0.60;;;9.60;99.90;8.90;94379.00;;;;5052942;28;20635;-67
2023/03/14 00:23:29;;;;;;;0.50;0.50;;;9.60;99.90;8.90;94379.00;;;;5052880;28;20219;-67
2023/03/14 00:26:00;;;;;;;0.70;0.70;;;9.60;99.90;9.10;94386.00;;;;5035020;28;20283;-67
2023/03/14 00:28:29;;;;;;;0.60;0.60;;;9.70;99.90;9.00;94387.00;;;;5034980;28;20188;-67
2023/03/14 00:30:57;;;;;;;0.50;0.50;;;9.70;99.90;9.00;94388.00;;;;5052819;28;20211;-67
2023/03/14 00:33:25;;;;;;;0.60;0.60;;;9.70;99.90;9.10;94374.00;;;;5052791;28;20196;-67
2023/03/14 00:35:57;;;;;;;0.60;0.60;;;9.80;99.90;9.10;94360.00;;;;5051577;28;20698;-67
2023/03/14 00:38:25;;;;;;;0.50;0.50;;;9.80;99.90;9.20;94369.00;;;;5052755;28;20279;-67
2023/03/14 00:40:52;;;;;;;0.50;0.50;;;9.80;99.90;9.20;94384.00;;;;5053009;28;20548;-67
2023/03/14 00:43:21;;;;;;;0.50;0.50;;;9.80;99.90;9.20;94388.00;;;;5052680;28;20295;-67
2023/03/14 00:45:50;;;;;;;0.70;0.70;;;9.80;99.90;9.20;94390.00;;;;5052720;28;20242;-67
2023/03/14 00:48:17;;;;;;;0.50;0.50;;;9.80;99.90;9.20;94391.00;;;;5035130;28;20192;-67
2023/03/14 00:50:44;;;;;;;0.50;0.50;;;;;9.00;94396.00;;;;5052624;28;20265;-67
2023/03/14 00:53:11;;;;;;;0.73;0.73;;;9.70;99.90;9.20;94404.00;;;;5052714;28;20242;-67
2023/03/14 00:55:39;;;;;;;0.60;0.60;;;9.80;99.90;9.20;94407.00;;;;5052891;28;20552;-67
2023/03/14 00:58:07;;;;;;;0.57;0.57;;;9.80;99.90;9.20;94411.00;;;;5052682;28;20196;-67
2023/03/14 01:00:34;;;;;;;0.80;0.80;;;9.80;99.90;9.10;94411.00;;;;5052535;28;20204;-67
2023/03/14 01:03:04;;;;;;;0.50;0.50;;;9.80;99.90;9.10;94403.00;;;;5051205;28;20660;-67
2023/03/14 01:05:31;;;;;;;0.50;0.50;;;;;9.00;94406.00;;;;5052529;28;20192;-67
2023/03/14 01:07:59;;;;;;;0.70;0.70;;;9.70;99.90;8.90;94409.00;;;;5052481;28;20188;-68
2023/03/14 01:10:27;;;;;;;0.53;0.53;;;9.70;99.90;9.00;94394.00;;;;5051135;28;20278;-67
2023/03/14 01:12:54;;;;;;;0.40;0.40;;;9.70;99.90;9.10;94401.00;;;;5052421;28;20188;-68
2023/03/14 01:15:21;;;;;;;0.50;0.50;;;;;8.90;94390.00;;;;5052684;28;20204;-68
2023/03/14 01:17:49;;;;;;;0.60;0.60;;;;;8.90;94380.00;;;;5052377;28;20200;-67
2023/03/14 01:20:18;;;;;;;0.60;0.60;;;;;8.90;94367.00;;;;5055790;28;20219;-67
2023/03/14 01:22:45;;;;;;;0.67;0.67;;;9.60;99.90;8.90;94368.00;;;;5056130;28;20278;-67
2023/03/14 01:25:16;;;;;;;0.60;0.60;;;;;8.80;94352.00;;;;5055972;28;20266;-67
2023/03/14 01:27:43;;;;;;;0.70;0.70;;;;;8.90;94341.00;;;;5056006;28;20258;-67
2023/03/14 01:30:12;;;;;;;0.57;0.57;;;;;9.00;94321.00;;;;5055851;28;20216;-68
2023/03/14 01:32:40;;;;;;;0.80;0.80;;;;;9.10;94300.00;;;;5055892;28;20219;-67
2023/03/14 01:35:08;;;;;;;0.60;0.60;;;9.70;99.90;9.00;94294.00;;;;5055859;28;20188;-67
2023/03/14 01:37:37;;;;;;;0.50;0.50;;;;;8.90;94288.00;;;;5055792;28;20192;-68
2023/03/14 01:40:05;;;;;;;0.50;0.50;;;9.60;99.90;8.90;94294.00;;;;5055693;28;20220;-67
2023/03/14 01:42:33;;;;;;;0.60;0.60;;;;;8.90;94299.00;;;;5055979;28;20200;-67
2023/03/14 01:45:02;;;;;;;0.50;0.50;;;9.60;99.60;8.70;94304.00;;;;5055635;28;20680;-68
2023/03/14 01:47:30;;;;;;;0.53;0.53;;;;;8.80;94300.00;;;;5055604;28;20188;-67
2023/03/14 01:50:02;;;;;;;0.57;0.57;;;;;8.80;94291.00;;;;5055810;28;20679;-67
2023/03/14 01:52:34;;;;;;;0.60;0.60;;;;;8.50;94290.00;;;;5055842;28;20528;-68
2023/03/14 01:55:07;;;;;;;0.50;0.50;;;;;8.70;94287.00;;;;5055779;28;20263;-67
2023/03/14 01:57:38;;;;;;;0.50;0.50;;;;;8.70;94310.00;;;;5055745;28;20184;-67
2023/03/14 02:00:11;;;;;;;0.50;0.50;;;;;8.60;94299.00;;;;5054681;28;20235;-67
2023/03/14 02:02:40;;;;;;;0.70;0.70;;;;;8.50;94324.00;;;;5055373;28;20667;-69
2023/03/14 02:05:08;;;;;;;0.50;0.50;;;9.30;99.90;8.60;94310.00;;;;5055129;28;20219;-68
2023/03/14 02:07:40;;;;;;;0.60;0.60;;;;;8.50;94297.00;;;;5055212;28;20671;-67
2023/03/14 02:10:10;;;;;;;0.73;0.73;;;;;8.40;94303.00;;;;5037223;28;20224;-67
2023/03/14 02:12:38;;;;;;;0.50;0.50;;;;;8.40;94301.00;;;;5055391;28;20207;-68
2023/03/14 02:15:06;;;;;;;0.50;0.50;;;;;8.40;94302.00;;;;5055540;28;20189;-68
2023/03/14 02:17:34;;;;;;;0.50;0.50;;;;;8.40;94301.00;;;;5055261;28;20192;-68
2023/03/14 02:20:24;;;;;;;1.67;1.57;;;;;8.40;94282.00;;;;5054929;28;20227;-67
2023/03/14 02:22:52;;;;;;;0.70;0.70;;;;;8.40;94276.00;;;;5055474;28;20184;-67
2023/03/14 02:25:27;;;;;;;0.50;0.50;;;;;8.30;94288.00;;;;5054783;28;20216;-68
2023/03/14 02:27:55;;;;;;;0.50;0.50;;;;;8.30;94274.00;;;;5055150;28;20524;-67
2023/03/14 02:30:25;;;;;;;0.57;0.57;;;;;8.20;94275.00;;;;5054083;28;20220;-67
2023/03/14 02:32:58;;;;;;;0.50;0.50;;;8.90;99.90;8.30;94258.00;;;;5054743;28;20192;-67
2023/03/14 02:35:30;;;;;;;0.50;0.50;;;;;8.20;94263.00;;;;5054718;28;20178;-67
2023/03/14 02:38:09;;;;;;;0.60;0.60;;;8.90;99.90;8.30;94240.00;;;;5054594;28;20181;-67
2023/03/14 02:40:36;;;;;;;0.50;0.50;;;;;8.10;94246.00;;;;5054688;28;20219;-67
2023/03/14 02:43:05;;;;;;;2.43;1.03;;;;;8.10;94262.00;;;;5055043;28;20196;-67
2023/03/14 02:45:43;;;;;;;0.50;0.50;;;8.80;99.90;8.20;94245.00;;;;5054617;28;20303;-67
2023/03/14 02:48:16;;;;;;;0.60;0.60;;;;;8.20;94255.00;;;;5055108;28;20257;-68
2023/03/14 02:50:45;;;;;;;0.60;0.60;;;;;8.20;94242.00;;;;5054977;28;20265;-68
2023/03/14 02:53:17;;;;;;;0.57;0.57;;;;;8.00;94233.00;;;;5054608;28;20200;-67
2023/03/14 02:55:47;;;;;;;0.60;0.60;;;8.80;99.90;8.10;94204.00;;;;5054652;28;20535;-67
2023/03/14 02:58:16;;;;;;;0.70;0.70;;;;;8.00;94222.00;;;;5054561;28;20584;-67
2023/03/14 03:00:44;;;;;;;0.80;0.80;;;8.70;99.90;8.00;94219.00;;;;5054321;28;20266;-68
2023/03/14 03:03:11;;;;;;;0.60;0.60;;;8.70;99.90;8.10;94222.00;;;;5054139;28;20188;-65
2023/03/14 03:05:39;;;;;;;0.60;0.60;;;8.80;98.50;8.10;94214.00;;;;5054030;28;20227;-65
2023/03/14 03:08:06;;;;;;;0.60;0.60;;;8.70;98.40;8.10;94218.00;;;;5036173;28;20203;-66
2023/03/14 03:10:33;;;;;;;0.60;0.60;;;8.80;97.30;8.10;94203.00;;;;5054188;28;20211;-66
2023/03/14 03:13:01;;;;;;;0.50;0.50;;;;;8.10;94204.00;;;;5053914;28;20199;-66
2023/03/14 03:15:30;;;;;;;0.50;0.50;;;8.70;97.20;7.90;94197.00;;;;5053931;28;20196;-66
2023/03/14 03:17:57;;;;;;;0.70;0.70;;;;;8.10;94190.00;;;;5053865;28;20184;-67
2023/03/14 03:20:24;;;;;;;0.50;0.50;;;8.90;96.10;8.20;94198.00;;;;5053740;28;20227;-66
2023/03/14 03:22:52;;;;;;;0.50;0.50;;;;;8.00;94191.00;;;;5054001;28;20531;-66
2023/03/14 03:25:19;;;;;;;0.70;0.70;;;8.80;95.40;8.00;94185.00;;;;5053665;28;20267;-66
2023/03/14 03:27:46;;;;;;;2.73;0.93;;;8.70;95.10;8.00;94178.00;;;;5053647;28;20184;-66
2023/03/14 03:30:14;;;;;;;0.60;0.60;;;;;8.00;94179.00;;;;5053594;28;20223;-66
2023/03/14 03:32:43;;;;;;;0.60;0.60;;;;;8.00;94172.00;;;;5053528;28;20196;-67
2023/03/14 03:35:11;;;;;;;0.50;0.50;;;8.70;94.10;7.90;94172.00;;;;5053828;28;20274;-66
2023/03/14 03:37:38;;;;;;;0.77;0.77;;;;;7.80;94160.00;;;;5053554;28;20302;-66
2023/03/14 03:40:07;;;;;;;0.50;0.50;;;8.60;94.30;7.90;94142.00;;;;5053447;28;20215;-66
2023/03/14 03:42:35;;;;;;;0.83;0.83;;;;;7.90;94141.00;;;;5052498;28;20188;-67
2023/03/14 03:45:04;;;;;;;0.67;0.67;;;8.60;93.50;7.80;94134.00;;;;5053234;28;20212;-66
2023/03/14 03:47:32;;;;;;;2.53;1.23;;;;;7.90;94148.00;;;;5053258;28;20192;-66
2023/03/14 03:50:00;;;;;;;0.60;0.60;;;8.50;93.10;7.80;94147.00;;;;5053222;28;20212;-66
2023/03/14 03:52:28;;;;;;;0.60;0.60;;;;;7.70;94158.00;;;;5053269;28;20211;-66
2023/03/14 03:54:55;;;;;;;0.80;0.80;;;8.50;93.80;7.80;94139.00;;;;5053156;28;20192;-66
2023/03/14 03:57:22;;;;;;;0.50;0.50;;;;;7.80;94135.00;;;;5053179;28;20196;-66
2023/03/14 03:59:49;;;;;;;0.50;0.50;;;8.60;92.60;7.90;94138.00;;;;5053003;28;20219;-66
2023/03/14 04:02:16;;;;;;;0.70;0.70;;;8.50;92.50;7.80;94134.00;;;;5053082;28;20188;-66
2023/03/14 04:04:43;;;;;;;0.97;0.97;;;8.50;93.80;7.70;94133.00;;;;5053293;28;20594;-67
2023/03/14 04:07:13;;;;;;;0.50;0.50;;;8.30;93.40;7.70;94120.00;;;;5052983;28;20658;-66
2023/03/14 04:09:40;;;;;;;0.77;0.77;;;8.30;93.80;7.60;94121.00;;;;5053499;28;20226;-67
2023/03/14 04:12:08;;;;;;;1.17;1.07;;;;;7.80;94121.00;;;;5053042;28;20237;-65
2023/03/14 04:14:35;;;;;;;0.60;0.60;;;8.40;92.90;7.80;94114.00;;;;5053214;28;20717;-66
2023/03/14 04:17:02;;;;;;;0.50;0.50;;;8.50;92.70;7.70;94117.00;;;;5053495;28;20191;-66
2023/03/14 04:19:29;;;;;;;0.90;0.87;;;8.40;93.00;7.60;94114.00;;;;5052771;28;20586;-64
2023/03/14 04:21:56;;;;;;;1.00;1.00;;;;;7.70;94105.00;;;;5063400;22;20675;-58
2023/03/14 04:24:25;;;;;;;0.50;0.50;;;8.30;93.80;7.50;94111.00;;;;5052988;28;20218;-58
2023/03/14 04:26:52;;;;;;;0.57;0.57;;;;;7.50;94116.00;;;;5052986;28;20188;-58
2023/03/14 04:29:20;;;;;;;0.50;0.50;;;;;7.60;94099.00;;;;5052984;28;20274;-58
2023/03/14 04:31:47;;;;;;;0.90;0.90;;;8.30;93.10;7.70;94110.00;;;;5052873;28;20204;-58
2023/03/14 04:34:14;;;;;;;1.23;1.23;;;8.40;93.70;7.70;94099.00;;;;5052914;28;20215;-58
2023/03/14 04:36:41;;;;;;;0.60;0.60;;;;;7.60;94090.00;;;;5053263;28;20203;-58
2023/03/14 04:39:09;;;;;;;0.73;0.73;;;;;7.50;94098.00;;;;5052943;28;20199;-58
2023/03/14 04:41:37;;;;;;;3.60;1.17;;;;;7.60;94093.00;;;;5053133;28;20216;-58
2023/03/14 04:44:05;;;;;;;0.57;0.57;;;;;7.60;94094.00;;;;5052939;28;20231;-58
2023/03/14 04:46:32;;;;;;;0.67;0.67;;;;;7.60;94102.00;;;;5052790;28;20227;-58
2023/03/14 04:49:02;;;;;;;0.50;0.50;;;;;7.60;94077.00;;;;5052743;28;20275;-58
2023/03/14 04:51:30;;;;;;;0.60;0.60;;;;;7.60;94074.00;;;;5052757;28;20215;-59
2023/03/14 04:53:57;;;;;;;0.50;0.50;;;;;7.60;94079.00;;;;5054234;28;20725;-58
2023/03/14 04:56:25;;;;;;;0.60;0.60;;;;;7.50;94072.00;;;;5056750;28;20199;-58
2023/03/14 04:58:54;;;;;;;0.50;0.50;;;;;7.50;94061.00;;;;5057176;28;20203;-58
2023/03/14 05:01:21;;;;;;;0.50;0.50;;;;;7.50;94059.00;;;;5056464;28;20223;-58
2023/03/14 05:03:48;;;;;;;0.60;0.60;;;;;7.60;94045.00;;;;5056771;28;20196;-58
2023/03/14 05:06:16;;;;;;;0.50;0.50;;;;;7.60;94039.00;;;;5056436;28;20269;-58
2023/03/14 05:08:44;;;;;;;1.23;1.23;;;;;7.50;94036.00;;;;5056453;28;20663;-58
2023/03/14 05:11:12;;;;;;;0.50;0.50;;;;;7.50;94040.00;;;;5055054;28;20220;-59
2023/03/14 05:13:40;;;;;;;0.60;0.60;;;;;7.50;94041.00;;;;5056403;28;20198;-58
2023/03/14 05:16:11;;;;;;;0.50;0.50;;;;;7.50;94041.00;;;;5056346;28;20196;-60
2023/03/14 05:18:38;;;;;;;0.50;0.50;;;;;7.40;94039.00;;;;5056392;28;20232;-58
2023/03/14 05:21:06;;;;;;;0.63;0.63;;;;;7.40;94039.00;;;;5066359;28;20289;-58
2023/03/14 05:23:34;;;;;;;2.17;1.63;;;;;7.50;94040.00;;;;5058260;28;20199;-58
2023/03/14 05:26:01;;;;;;;0.60;0.60;;;;;7.60;94035.00;;;;5076059;28;20245;-58
2023/03/14 05:28:29;;;;;;;0.70;0.70;;;;;7.50;94034.00;;;;5077103;28;20547;-58
2023/03/14 05:30:56;;;;;;;0.57;0.57;;;;;7.60;94031.00;;;;5075903;28;20214;-59
2023/03/14 05:33:25;;;;;;;0.50;0.50;;;;;7.60;94028.00;;;;5076250;28;20203;-58
2023/03/14 05:35:52;;;;;;;0.60;0.60;;;;;7.70;94021.00;;;;5075891;28;20195;-58
2023/03/14 05:38:20;;;;;;;0.57;0.57;;;;;7.70;94035.00;;;;5075947;28;20207;-58
2023/03/14 05:40:47;;;;;;;0.60;0.60;;;;;7.70;94006.00;;;;5075759;28;20215;-58
2023/03/14 05:43:15;;;;;;;0.60;0.60;;;;;7.70;94028.00;;;;5076041;28;20226;-61
2023/03/14 05:45:44;;;;;;;0.50;0.50;;;;;7.80;94006.00;;;;5075717;28;20225;-58
2023/03/14 05:48:11;;;;;;;0.50;0.50;;;;;7.70;94022.00;;;;5076210;28;20226;-58
2023/03/14 05:51:05;;;;;;;0.60;0.60;;;;;7.60;94027.00;;;;5075632;28;20226;-58
2023/03/14 05:53:33;;;;;;;0.50;0.50;;;;;7.60;94030.00;;;;5075584;28;20196;-58
2023/03/14 05:56:00;;;;;;;0.50;0.50;;;;;7.70;94031.00;;;;5075680;28;20683;-58
2023/03/14 05:58:28;;;;;;;0.50;0.50;;;;;7.80;94035.00;;;;5075975;28;20246;-58
2023/03/14 06:00:55;;;;;;;0.50;0.50;;;;;7.80;94019.00;;;;5075709;28;20260;-59
2023/03/14 06:03:23;;;;;;;0.50;0.50;;;;;7.90;94026.00;;;;5075494;28;20673;-58
2023/03/14 06:05:51;;;;;;;0.70;0.70;;;;;7.90;94015.00;;;;5056324;28;20219;-58
2023/03/14 06:08:20;;;;;;;0.60;0.60;;;;;7.90;94018.00;;;;5075375;28;20286;-59
2023/03/14 06:10:48;;;;;;;0.50;0.50;;;;;7.80;94021.00;;;;5075302;28;20211;-60
2023/03/14 06:13:16;;;;;;;0.60;0.60;;;;;8.00;94020.00;;;;5075270;28;20282;-59
2023/03/14 06:15:43;;;;;;;0.87;0.87;;;;;7.90;94022.00;;;;5075200;28;20271;-57
2023/03/14 06:18:12;;;;;;;1.00;1.00;;;;;8.10;94002.00;;;;5057229;28;20199;-58
2023/03/14 06:20:39;;;;;;;0.57;0.57;;;;;8.00;94012.00;;;;5074947;28;20284;-60
2023/03/14 06:23:08;;;;;;;3.77;1.33;;;;;8.10;94006.00;;;;5075404;28;20614;-59
2023/03/14 06:25:37;;;;;;;0.90;0.90;;;;;8.10;94024.00;;;;5075098;28;20229;-58
2023/03/14 06:28:05;;;;;;;1.90;1.23;;;;;8.00;94010.00;;;;5075181;28;20193;-59
2023/03/14 06:30:32;;;;;;;0.60;0.60;;;;;7.90;94013.00;;;;5074704;28;20219;-59
2023/03/14 06:33:00;;;;;;;1.30;0.83;;;;;8.00;94012.00;;;;5074877;28;20195;-59
2023/03/14 06:35:27;;;;;;;0.50;0.50;;;;;8.00;94008.00;;;;5074830;28;20191;-59
2023/03/14 06:37:55;;;;;;;0.60;0.60;;;;;8.10;93997.00;;;;5075126;28;20187;-59
2023/03/14 06:40:22;;;;;;;1.10;1.10;;;;;8.20;94002.00;;;;5074762;28;20215;-59
2023/03/14 06:42:51;;;;;;;0.60;0.60;;;;;8.10;94020.00;;;;5074725;28;20658;-59
2023/03/14 06:45:19;;;;;;;0.50;0.50;;;;;8.10;94023.00;;;;5074593;28;20219;-59
2023/03/14 06:47:46;;;;;;;0.60;0.60;;;;;8.20;94028.00;;;;5061000;28;20203;-60
2023/03/14 06:50:14;;;;;;;0.50;0.50;;;;;8.20;94010.00;;;;5060678;28;20234;-62
2023/03/14 06:52:47;;;;;;;0.80;0.80;;;;;8.40;94016.00;;;;5063318;28;20315;-60
2023/03/14 06:55:15;;;;;;;0.80;0.80;;;;;8.50;94012.00;;;;5063728;28;20187;-60
2023/03/14 06:57:43;;;;;;;0.40;0.40;;;;;8.50;94003.00;;;;5061496;28;20517;-59
2023/03/14 07:00:14;;;;;;;0.60;0.60;;;;;8.50;94009.00;;;;5054551;28;20230;-59
2023/03/14 07:02:42;;;;;;;0.50;0.50;;;;;8.60;94011.00;;;;5062407;28;20202;-60
2023/03/14 07:05:10;;;;;;;0.50;0.50;;;;;8.60;94007.00;;;;5051375;28;20207;-58
2023/03/14 07:07:37;;;;;;;0.50;0.50;;;;;8.40;94014.00;;;;5040967;28;20733;-58
2023/03/14 07:10:07;;;;;;;0.57;0.57;;;;;8.60;94020.00;;;;5072030;28;20208;-58
2023/03/14 07:12:34;;;;;;;0.60;0.60;;;;;8.60;94002.00;;;;5071917;28;20286;-58
2023/03/14 07:15:01;;;;;;;0.53;0.53;;;;;8.60;94017.00;;;;5072110;28;20225;-57
2023/03/14 07:17:30;;;;;;;0.60;0.60;;;;;8.50;94035.00;;;;5071717;28;20206;-59
2023/03/14 07:19:59;;;;;;;0.50;0.50;;;;;8.60;94030.00;;;;5071881;28;20200;-58
2023/03/14 07:22:26;;;;;;;0.50;0.50;;;;;8.70;94024.00;;;;5054006;28;20553;-58
2023/03/14 07:24:53;;;;;;;0.50;0.50;;;;;8.80;94029.00;;;;5071710;28;20211;-59
2023/03/14 07:27:21;;;;;;;0.50;0.50;;;;;8.80;94018.00;;;;5070588;28;20215;-59
2023/03/14 07:29:48;;;;;;;0.60;0.60;;;;;8.70;94032.00;;;;5071633;28;20218;-58
2023/03/14 07:32:16;;;;;;;0.57;0.57;;;;;8.90;94031.00;;;;5066992;28;20196;-58
2023/03/14 07:34:45;;;;;;;0.50;0.50;;;;;9.00;94047.00;;;;5051513;28;20559;-58
2023/03/14 07:37:12;;;;;;;0.57;0.57;;;;;9.10;94015.00;;;;5050957;28;20200;-59
2023/03/14 07:39:39;;;;;;;0.50;0.50;;;;;9.40;94023.00;;;;5051985;28;20562;-59
2023/03/14 07:42:07;;;;;;;0.40;0.40;;;9.90;82.40;9.20;94041.00;;;;5054078;28;20202;-59
2023/03/14 07:44:34;;;;;;;0.60;0.60;;;;;9.40;94095.00;;;;5053805;28;20230;-59
2023/03/14 07:47:02;;;;;;;0.50;0.50;;;;;9.30;94049.00;;;;5058509;28;20216;-59
2023/03/14 07:49:29;;;;;;;0.60;0.60;;;;;9.30;94051.00;;;;5051921;28;20199;-59
2023/03/14 07:51:58;;;;;;;0.60;0.60;;;;;9.40;94056.00;;;;5051239;28;20224;-59
2023/03/14 07:54:26;;;;;;;0.57;0.57;;;;;9.50;94075.00;;;;5051358;28;20693;-59
2023/03/14 07:56:54;;;;;;;0.90;0.90;;;;;9.50;94065.00;;;;5051128;28;20188;-59
2023/03/14 07:59:21;;;;;;;0.50;0.50;;;;;9.40;94081.00;;;;5051712;28;20196;-58
2023/03/14 08:01:49;;;;;;;0.43;0.43;;;;;9.50;94077.00;;;;5050761;28;20212;-60
2023/03/14 08:04:16;;;;;;;0.50;0.50;;;;;9.50;94072.00;;;;5051597;28;20204;-58
2023/03/14 08:06:44;;;;;;;0.50;0.50;;;;;9.40;94081.00;;;;5069734;28;20218;-58
2023/03/14 08:09:12;;;;;;;0.50;0.50;;;;;9.30;94073.00;;;;5069715;28;20718;-58
2023/03/14 08:11:40;;;;;;;0.50;0.50;;;;;9.20;94085.00;;;;5047638;28;20226;-59
2023/03/14 08:14:07;;;;;;;0.50;0.50;;;;;9.10;94118.00;;;;5071191;28;20282;-58
2023/03/14 08:16:35;;;;;;;0.50;0.50;;;;;9.20;94078.00;;;;5059844;28;20199;-58
2023/03/14 08:19:02;;;;;;;0.60;0.60;;;;;9.20;94091.00;;;;5050470;28;20755;-59
2023/03/14 08:21:30;;;;;;;0.60;0.60;;;;;9.10;94092.00;;;;5049648;28;20227;-59
2023/03/14 08:23:57;;;;;;;0.40;0.40;;;;;9.10;94092.00;;;;5050991;28;20667;-58
2023/03/14 08:26:26;;;;;;;0.60;0.60;;;;;9.00;94088.00;;;;5051017;28;20725;-59
2023/03/14 08:28:53;;;;;;;0.50;0.50;;;;;9.00;94091.00;;;;5054672;28;20200;-59
2023/03/14 08:31:21;;;;;;;0.50;0.50;;;;;9.00;94085.00;;;;5057231;28;20216;-59
2023/03/14 08:33:48;;;;;;;0.50;0.50;;;;;9.10;94082.00;;;;5057202;28;20208;-59
2023/03/14 08:36:16;;;;;;;0.57;0.57;;;;;9.00;94098.00;;;;5057440;28;20204;-59
2023/03/14 08:38:43;;;;;;;0.50;0.50;;;;;9.00;94087.00;;;;5057943;28;20229;-59
2023/03/14 08:41:11;;;;;;;0.50;0.50;;;;;9.10;94077.00;;;;5039245;28;20334;-59
2023/03/14 08:43:40;;;;;;;0.50;0.50;;;;;9.10;94087.00;;;;5057686;28;20207;-58
2023/03/14 08:46:07;;;;;;;0.47;0.47;;;;;9.10;94084.00;;;;5056974;28;20220;-59
2023/03/14 08:48:35;;;;;;;0.50;0.50;;;;;9.10;94081.00;;;;5057679;28;20578;-59
2023/03/14 08:51:06;;;;;;;0.53;0.53;;;;;9.30;94076.00;;;;5056621;28;20712;-59
2023/03/14 08:53:34;;;;;;;0.60;0.60;;;;;9.20;94088.00;;;;5057700;28;20229;-58
2023/03/14 08:56:01;;;;;;;0.70;0.70;;;;;9.10;94085.00;;;;5057041;28;20279;-58
2023/03/14 08:58:29;;;;;;;0.60;0.60;;;;;9.10;94085.00;;;;5057994;28;20575;-59
2023/03/14 09:00:58;;;;;;;0.50;0.50;;;;;9.10;94105.00;;;;5056606;28;20224;-60
2023/03/14 09:03:25;;;;;;;0.43;0.43;;;;;9.10;94112.00;;;;5057470;28;20533;-59
2023/03/14 09:05:53;;;;;;;0.50;0.50;;;;;9.10;94108.00;;;;5057002;28;20586;-58
2023/03/14 09:08:21;;;;;;;0.60;0.60;;;;;9.00;94112.00;;;;5058973;28;20679;-59
2023/03/14 09:10:48;;;;;;;0.57;0.57;;;;;8.90;94132.00;;;;5077243;28;20299;-59
2023/03/14 09:13:16;;;;;;;0.50;0.50;;;;;8.80;94126.00;;;;5077248;28;20278;-58
2023/03/14 09:15:43;;;;;;;0.50;0.50;;;;;8.90;94113.00;;;;5077192;28;20195;-59
2023/03/14 09:18:12;;;;;;;0.50;0.50;;;;;9.00;94139.00;;;;5077465;28;20199;-59
2023/03/14 09:20:41;;;;;;;0.60;0.60;;;;;9.20;94116.00;;;;5077042;28;20223;-59
2023/03/14 09:23:09;;;;;;;0.60;0.60;;;;;8.80;94122.00;;;;5056167;28;20199;-60
2023/03/14 09:25:36;;;;;;;0.60;0.60;;;;;8.80;94151.00;;;;5074924;28;20528;-58
2023/03/14 09:28:04;;;;;;;0.50;0.50;;;;;8.80;94141.00;;;;5077202;28;20221;-57
2023/03/14 09:30:32;;;;;;;0.57;0.57;;;;;9.10;94151.00;;;;5076732;28;20242;-58
2023/03/14 09:33:00;;;;;;;0.60;0.60;;;;;8.90;94141.00;;;;5077392;28;20245;-58
2023/03/14 09:35:29;;;;;;;0.60;0.60;;;;;8.60;94150.00;;;;5076197;28;20532;-58
2023/03/14 09:37:56;;;;;;;0.70;0.70;;;;;9.00;94143.00;;;;5059441;28;20559;-58
2023/03/14 09:40:24;;;;;;;0.50;0.50;;;;;9.00;94129.00;;;;5075029;28;20226;-61
2023/03/14 09:42:53;;;;;;;0.50;0.50;;;;;9.10;94149.00;;;;5074087;28;20203;-58
2023/03/14 09:45:27;;;;;;;0.70;0.70;;;;;8.90;94133.00;;;;5074021;28;20231;-58
2023/03/14 09:47:56;;;;;;;0.60;0.60;;;;;8.80;94126.00;;;;5057257;28;20687;-58
2023/03/14 09:50:25;;;;;;;5.70;1.17;;;;;9.00;94128.00;;;;5052216;28;20220;-58
2023/03/14 09:53:01;;;;;;;0.50;0.50;;;;;9.10;94123.00;;;;5053266;28;20200;-58
2023/03/14 09:55:29;;;;;;;0.50;0.50;;;;;9.40;94125.00;;;;5052084;28;20188;-58
2023/03/14 09:57:59;;;;;;;0.70;0.70;;;;;9.30;94129.00;;;;5052866;28;20227;-59
2023/03/14 10:00:30;;;;;;;0.50;0.50;;;;;9.90;94113.00;;;;5052692;28;20212;-58
2023/03/14 10:03:02;;;;;;;0.47;0.47;;;;;10.20;94133.00;;;;5035616;28;20199;-58
2023/03/14 10:05:29;;;;;;;0.53;0.53;;;;;9.80;94135.00;;;;5052604;28;20550;-58
2023/03/14 10:07:58;;;;;;;0.60;0.60;;;;;9.90;94130.00;;;;5053647;28;20577;-58
2023/03/14 10:10:27;;;;;;;0.50;0.50;;;;;9.90;94141.00;;;;5053107;28;20223;-59
2023/03/14 10:12:58;;;;;;;0.47;0.47;;;;;9.60;94136.00;;;;5069118;28;20261;-58
2023/03/14 10:15:28;;;;;;;0.50;0.50;;;;;9.50;94139.00;;;;5052968;28;20192;-62
2023/03/14 10:17:55;;;;;;;0.57;0.57;;;;;9.60;94126.00;;;;5053178;28;20211;-58
2023/03/14 10:20:32;;;;;;;0.40;0.40;;;;;9.90;94144.00;;;;5067120;22;20223;31
2023/03/14 10:23:02;;;;;;;1.67;1.57;;;;;9.60;94132.00;;;;5011504;28;20673;-57
2023/03/14 10:25:31;;;;;;;0.60;0.60;;;;;10.00;94137.00;;;;5011798;28;20195;-59
2023/03/14 10:27:59;;;;;;;0.50;0.50;;;;;9.80;94141.00;;;;5012787;28;21279;-58
2023/03/14 10:30:43;;;;;;;0.50;0.50;;;;;9.50;94149.00;;;;5013024;28;20244;-58
2023/03/14 10:33:16;;;;;;;0.50;0.50;;;;;9.50;94149.00;;;;5013595;28;20219;-58
2023/03/14 10:35:44;;;;;;;0.50;0.50;;;;;9.40;94151.00;;;;4992600;28;20202;-59
2023/03/14 10:38:17;;;;;;;0.40;0.40;;;;;9.50;94147.00;;;;5012584;28;20681;-58
2023/03/14 10:40:49;;;;;;;0.50;0.50;;;;;9.90;94155.00;;;;5013034;28;20221;-58
2023/03/14 10:43:21;;;;;;;0.50;0.50;;;;;9.70;94156.00;;;;5012867;28;20603;-59
2023/03/14 10:45:57;;;;;;;0.40;0.40;;;;;9.60;94157.00;;;;5012784;28;20201;-58
2023/03/14 10:48:31;;;;;;;0.50;0.50;;;;;9.60;94180.00;;;;5012378;28;20210;-58
2023/03/14 10:51:04;;;;;;;0.50;0.50;;;;;9.40;94172.00;;;;5012477;28;20213;-58
2023/03/14 10:53:40;;;;;;;0.50;0.50;;;;;9.00;94169.00;;;;5008514;28;20204;-57
2023/03/14 10:56:08;;;;;;;0.40;0.40;;;;;9.00;94184.00;;;;5012997;28;20558;-58
2023/03/14 10:58:41;;;;;;;0.70;0.70;;;;;9.00;94191.00;;;;5012284;28;20201;-58
2023/03/14 11:01:32;;;;;;;0.53;0.53;;;;;8.90;94194.00;;;;5012496;28;20217;-58
2023/03/14 11:04:06;;;;;;;0.57;0.57;;;;;8.70;94190.00;;;;5012166;28;20689;-58
2023/03/14 11:06:42;;;;;;;0.40;0.40;;;;;8.60;94202.00;;;;5012244;28;20213;-58
2023/03/14 11:09:19;;;;;;;0.50;0.50;;;;;8.70;94200.00;;;;5011152;28;20204;-58
2023/03/14 11:11:48;;;;;;;0.50;0.50;;;;;9.00;94201.00;;;;5011702;28;20267;-57
2023/03/14 11:14:29;;;;;;;0.50;0.50;;;;;8.50;94198.00;;;;4994655;28;20216;-57
2023/03/14 11:17:02;;;;;;;0.50;0.50;;;;;8.90;94204.00;;;;5012173;28;20226;-58
2023/03/14 11:19:40;;;;;;;0.50;0.50;;;;;9.00;94202.00;;;;5012069;28;20273;-57
2023/03/14 11:22:21;;;;;;;0.47;0.47;;;;;8.90;94204.00;;;;5010821;28;20236;-58
2023/03/14 11:25:18;;;;;;;0.60;0.60;;;;;9.10;94198.00;;;;5012004;28;20189;-59
2023/03/14 11:27:49;;;;;;;0.50;0.50;;;;;9.50;94206.00;;;;4999521;28;20244;-58
2023/03/14 11:30:21;;;;;;;0.50;0.50;;;;;9.60;94204.00;;;;5011946;28;20193;-58
2023/03/14 11:32:57;;;;;;;0.50;0.50;;;;;9.20;94228.00;;;;5010687;28;20208;-58
2023/03/14 11:35:29;;;;;;;0.60;0.60;;;;;9.30;94224.00;;;;5008137;28;20223;-58
2023/03/14 11:38:04;;;;;;;0.50;0.50;;;;;9.00;94224.00;;;;5012342;28;20189;-59
2023/03/14 11:40:34;;;;;;;0.67;0.67;;;;;8.80;94233.00;;;;5009595;28;20243;-58
2023/03/14 11:43:12;;;;;;;0.60;0.60;;;;;8.60;94217.00;;;;5012347;28;20726;-58
2023/03/14 11:45:42;;;;;;;0.60;0.60;;;;;8.90;94243.00;;;;5011386;28;20243;-57
2023/03/14 11:48:21;;;;;;;0.50;0.50;;;;;8.60;94250.00;;;;5011620;28;20216;-57
2023/03/14 11:50:53;;;;;;;0.53;0.53;;;;;8.60;94253.00;;;;5008106;28;20217;-62
2023/03/14 11:53:24;;;;;;;0.57;0.57;;;;;8.60;94265.00;;;;5011717;28;20198;-58
2023/03/14 11:55:53;;;;;;;0.50;0.50;;;;;8.70;94320.00;;;;5011659;28;20690;-56
2023/03/14 11:58:25;;;;;;;0.60;0.60;;;;;8.50;94287.00;;;;5010471;28;20197;-58
2023/03/14 12:00:55;;;;;;;0.80;0.80;;;;;8.60;94304.00;;;;5011494;28;20228;-57
2023/03/14 12:03:29;;;;;;;0.43;0.43;;;;;9.10;94325.00;;;;4993142;28;20243;-57
2023/03/14 12:06:14;;;;;;;0.57;0.57;;;;;9.20;94313.00;;;;5011415;28;20304;-57
2023/03/14 12:08:50;;;;;;;0.87;0.87;;;;;8.50;94342.00;;;;5011421;28;20216;-57
2023/03/14 12:11:24;;;;;;;0.40;0.40;;;;;8.40;94331.00;;;;5010617;28;20216;-57
2023/03/14 12:13:53;;;;;;;0.60;0.60;;;;;8.10;94350.00;;;;5010216;28;20193;-57
2023/03/14 12:16:32;;;;;;;0.60;0.60;;;;;8.30;94363.00;;;;5011316;28;20683;-57
2023/03/14 12:19:36;;;;;;;0.60;0.60;;;;;8.00;94350.00;;;;5007922;28;20185;-57